sensor_id;sensor_type;location;lat;lon;timestamp;P1;durP1;ratioP1;P2;durP2;ratioP2
43509;SDS011;29105;57.764;40.952;2024-03-08T00:01:14;0.70;;;0.30;;
43509;SDS011;29105;57.764;40.952;2024-03-08T00:03:42;1.45;;;0.88;;
43509;SDS011;29105;57.764;40.952;2024-03-08T00:06:08;0.82;;;0.43;;
43509;SDS011;29105;57.764;40.952;2024-03-08T00:08:33;0.85;;;0.38;;
43509;SDS011;29105;57.764;40.952;2024-03-08T00:10:59;0.88;;;0.57;;
43509;SDS011;29105;57.764;40.952;2024-03-08T00:13:25;1.55;;;0.47;;
43509;SDS011;29105;57.764;40.952;2024-03-08T00:15:51;3.50;;;0.50;;
43509;SDS011;29105;57.764;40.952;2024-03-08T00:18:16;0.95;;;0.40;;
43509;SDS011;29105;57.764;40.952;2024-03-08T00:20:42;0.40;;;0.40;;
43509;SDS011;29105;57.764;40.952;2024-03-08T00:23:09;0.90;;;0.50;;
43509;SDS011;29105;57.764;40.952;2024-03-08T00:25:36;0.70;;;0.30;;
43509;SDS011;29105;57.764;40.952;2024-03-08T00:28:02;0.50;;;0.20;;
43509;SDS011;29105;57.764;40.952;2024-03-08T00:30:30;1.27;;;0.40;;
43509;SDS011;29105;57.764;40.952;2024-03-08T00:32:56;0.50;;;0.40;;
43509;SDS011;29105;57.764;40.952;2024-03-08T00:35:22;1.63;;;0.80;;
43509;SDS011;29105;57.764;40.952;2024-03-08T00:37:48;1.30;;;0.63;;
43509;SDS011;29105;57.764;40.952;2024-03-08T00:40:14;0.65;;;0.40;;
43509;SDS011;29105;57.764;40.952;2024-03-08T00:42:39;0.77;;;0.60;;
43509;SDS011;29105;57.764;40.952;2024-03-08T00:45:06;1.73;;;1.00;;
43509;SDS011;29105;57.764;40.952;2024-03-08T00:47:33;2.63;;;0.93;;
43509;SDS011;29105;57.764;40.952;2024-03-08T00:49:58;1.30;;;0.70;;
43509;SDS011;29105;57.764;40.952;2024-03-08T00:52:24;1.48;;;0.60;;
43509;SDS011;29105;57.764;40.952;2024-03-08T00:54:50;0.68;;;0.30;;
43509;SDS011;29105;57.764;40.952;2024-03-08T00:57:16;0.90;;;0.50;;
43509;SDS011;29105;57.764;40.952;2024-03-08T00:59:41;1.40;;;0.50;;
43509;SDS011;29105;57.764;40.952;2024-03-08T01:02:07;1.13;;;0.70;;
43509;SDS011;29105;57.764;40.952;2024-03-08T01:04:34;1.58;;;0.90;;
43509;SDS011;29105;57.764;40.952;2024-03-08T01:07:00;1.45;;;1.05;;
43509;SDS011;29105;57.764;40.952;2024-03-08T01:09:26;3.20;;;0.63;;
43509;SDS011;29105;57.764;40.952;2024-03-08T01:11:53;1.85;;;0.50;;
43509;SDS011;29105;57.764;40.952;2024-03-08T01:14:23;1.48;;;0.70;;
43509;SDS011;29105;57.764;40.952;2024-03-08T01:16:50;5.43;;;1.13;;
43509;SDS011;29105;57.764;40.952;2024-03-08T01:19:16;1.33;;;0.60;;
43509;SDS011;29105;57.764;40.952;2024-03-08T01:21:42;1.98;;;0.80;;
43509;SDS011;29105;57.764;40.952;2024-03-08T01:24:08;1.67;;;0.70;;
43509;SDS011;29105;57.764;40.952;2024-03-08T01:26:34;1.10;;;0.63;;
43509;SDS011;29105;57.764;40.952;2024-03-08T01:29:00;0.95;;;0.70;;
43509;SDS011;29105;57.764;40.952;2024-03-08T01:31:29;0.88;;;0.60;;
43509;SDS011;29105;57.764;40.952;2024-03-08T01:33:56;0.52;;;0.40;;
43509;SDS011;29105;57.764;40.952;2024-03-08T01:36:22;1.10;;;0.70;;
43509;SDS011;29105;57.764;40.952;2024-03-08T01:38:48;2.25;;;0.88;;
43509;SDS011;29105;57.764;40.952;2024-03-08T01:41:14;1.52;;;0.90;;
43509;SDS011;29105;57.764;40.952;2024-03-08T01:43:42;1.13;;;0.77;;
43509;SDS011;29105;57.764;40.952;2024-03-08T01:46:08;2.55;;;0.80;;
43509;SDS011;29105;57.764;40.952;2024-03-08T01:48:34;1.35;;;0.95;;
43509;SDS011;29105;57.764;40.952;2024-03-08T01:51:00;3.50;;;0.65;;
43509;SDS011;29105;57.764;40.952;2024-03-08T01:53:26;1.92;;;0.75;;
43509;SDS011;29105;57.764;40.952;2024-03-08T01:55:57;0.80;;;0.80;;
43509;SDS011;29105;57.764;40.952;2024-03-08T01:58:23;6.68;;;1.08;;
43509;SDS011;29105;57.764;40.952;2024-03-08T02:00:50;2.55;;;1.08;;
43509;SDS011;29105;57.764;40.952;2024-03-08T02:03:16;1.67;;;1.13;;
43509;SDS011;29105;57.764;40.952;2024-03-08T02:05:42;1.80;;;1.23;;
43509;SDS011;29105;57.764;40.952;2024-03-08T02:08:08;5.80;;;1.58;;
43509;SDS011;29105;57.764;40.952;2024-03-08T02:10:39;3.13;;;1.15;;
43509;SDS011;29105;57.764;40.952;2024-03-08T02:13:07;1.38;;;1.02;;
43509;SDS011;29105;57.764;40.952;2024-03-08T02:15:52;1.58;;;0.57;;
43509;SDS011;29105;57.764;40.952;2024-03-08T02:18:29;0.90;;;0.65;;
43509;SDS011;29105;57.764;40.952;2024-03-08T02:20:56;1.00;;;0.60;;
43509;SDS011;29105;57.764;40.952;2024-03-08T02:23:22;1.38;;;0.70;;
43509;SDS011;29105;57.764;40.952;2024-03-08T02:25:50;3.10;;;0.80;;
43509;SDS011;29105;57.764;40.952;2024-03-08T02:28:16;1.13;;;0.50;;
43509;SDS011;29105;57.764;40.952;2024-03-08T02:30:45;1.63;;;0.85;;
43509;SDS011;29105;57.764;40.952;2024-03-08T02:33:16;1.52;;;1.00;;
43509;SDS011;29105;57.764;40.952;2024-03-08T02:35:43;1.00;;;0.70;;
43509;SDS011;29105;57.764;40.952;2024-03-08T02:38:16;8.98;;;0.70;;
43509;SDS011;29105;57.764;40.952;2024-03-08T02:40:46;2.30;;;0.90;;
43509;SDS011;29105;57.764;40.952;2024-03-08T02:43:13;2.00;;;0.90;;
43509;SDS011;29105;57.764;40.952;2024-03-08T02:45:40;1.88;;;1.17;;
43509;SDS011;29105;57.764;40.952;2024-03-08T02:48:07;4.43;;;1.60;;
43509;SDS011;29105;57.764;40.952;2024-03-08T02:50:33;6.93;;;1.98;;
43509;SDS011;29105;57.764;40.952;2024-03-08T02:53:00;2.75;;;1.77;;
43509;SDS011;29105;57.764;40.952;2024-03-08T02:55:26;3.58;;;1.85;;
43509;SDS011;29105;57.764;40.952;2024-03-08T02:57:52;4.50;;;1.85;;
43509;SDS011;29105;57.764;40.952;2024-03-08T03:00:21;7.00;;;1.58;;
43509;SDS011;29105;57.764;40.952;2024-03-08T03:02:49;2.38;;;1.42;;
43509;SDS011;29105;57.764;40.952;2024-03-08T03:05:20;3.65;;;1.50;;
43509;SDS011;29105;57.764;40.952;2024-03-08T03:07:46;3.83;;;2.35;;
43509;SDS011;29105;57.764;40.952;2024-03-08T03:10:12;4.03;;;1.33;;
43509;SDS011;29105;57.764;40.952;2024-03-08T03:12:38;5.05;;;1.60;;
43509;SDS011;29105;57.764;40.952;2024-03-08T03:15:04;2.08;;;1.00;;
43509;SDS011;29105;57.764;40.952;2024-03-08T03:17:30;4.47;;;2.05;;
43509;SDS011;29105;57.764;40.952;2024-03-08T03:19:56;7.70;;;1.63;;
43509;SDS011;29105;57.764;40.952;2024-03-08T03:22:21;5.28;;;2.20;;
43509;SDS011;29105;57.764;40.952;2024-03-08T03:24:47;4.80;;;2.65;;
43509;SDS011;29105;57.764;40.952;2024-03-08T03:27:13;3.58;;;2.17;;
43509;SDS011;29105;57.764;40.952;2024-03-08T03:29:40;3.97;;;1.90;;
43509;SDS011;29105;57.764;40.952;2024-03-08T03:32:11;1.88;;;1.23;;
43509;SDS011;29105;57.764;40.952;2024-03-08T03:34:37;19.70;;;1.17;;
43509;SDS011;29105;57.764;40.952;2024-03-08T03:37:04;1.88;;;1.10;;
43509;SDS011;29105;57.764;40.952;2024-03-08T03:39:30;3.70;;;1.00;;
43509;SDS011;29105;57.764;40.952;2024-03-08T03:42:16;7.10;;;0.77;;
43509;SDS011;29105;57.764;40.952;2024-03-08T03:44:44;2.35;;;1.20;;
43509;SDS011;29105;57.764;40.952;2024-03-08T03:47:10;1.83;;;0.95;;
43509;SDS011;29105;57.764;40.952;2024-03-08T03:49:36;1.95;;;0.65;;
43509;SDS011;29105;57.764;40.952;2024-03-08T03:52:02;4.32;;;2.17;;
43509;SDS011;29105;57.764;40.952;2024-03-08T03:54:30;1.70;;;0.88;;
43509;SDS011;29105;57.764;40.952;2024-03-08T03:56:56;1.58;;;1.00;;
43509;SDS011;29105;57.764;40.952;2024-03-08T03:59:22;2.60;;;1.45;;
43509;SDS011;29105;57.764;40.952;2024-03-08T04:01:48;2.72;;;0.80;;
43509;SDS011;29105;57.764;40.952;2024-03-08T04:04:14;1.13;;;0.93;;
43509;SDS011;29105;57.764;40.952;2024-03-08T04:06:41;2.58;;;1.27;;
43509;SDS011;29105;57.764;40.952;2024-03-08T04:09:07;4.05;;;1.77;;
43509;SDS011;29105;57.764;40.952;2024-03-08T04:11:33;2.40;;;1.38;;
43509;SDS011;29105;57.764;40.952;2024-03-08T04:13:59;3.42;;;1.15;;
43509;SDS011;29105;57.764;40.952;2024-03-08T04:16:24;6.03;;;2.03;;
43509;SDS011;29105;57.764;40.952;2024-03-08T04:18:51;4.82;;;1.85;;
43509;SDS011;29105;57.764;40.952;2024-03-08T04:21:17;3.25;;;2.10;;
43509;SDS011;29105;57.764;40.952;2024-03-08T04:23:45;3.55;;;2.17;;
43509;SDS011;29105;57.764;40.952;2024-03-08T04:26:10;3.35;;;2.08;;
43509;SDS011;29105;57.764;40.952;2024-03-08T04:28:36;4.00;;;2.47;;
43509;SDS011;29105;57.764;40.952;2024-03-08T04:31:05;3.25;;;2.40;;
43509;SDS011;29105;57.764;40.952;2024-03-08T04:33:32;4.47;;;2.13;;
43509;SDS011;29105;57.764;40.952;2024-03-08T04:35:59;4.45;;;2.22;;
43509;SDS011;29105;57.764;40.952;2024-03-08T04:38:25;9.95;;;2.28;;
43509;SDS011;29105;57.764;40.952;2024-03-08T04:40:51;2.88;;;1.45;;
43509;SDS011;29105;57.764;40.952;2024-03-08T04:43:17;2.53;;;1.48;;
43509;SDS011;29105;57.764;40.952;2024-03-08T04:45:44;2.05;;;1.42;;
43509;SDS011;29105;57.764;40.952;2024-03-08T04:48:09;4.40;;;1.95;;
43509;SDS011;29105;57.764;40.952;2024-03-08T04:50:36;3.88;;;1.80;;
43509;SDS011;29105;57.764;40.952;2024-03-08T04:53:03;2.92;;;1.67;;
43509;SDS011;29105;57.764;40.952;2024-03-08T04:55:33;9.93;;;3.28;;
43509;SDS011;29105;57.764;40.952;2024-03-08T04:58:00;4.28;;;2.40;;
43509;SDS011;29105;57.764;40.952;2024-03-08T05:00:25;3.38;;;1.60;;
43509;SDS011;29105;57.764;40.952;2024-03-08T05:02:51;6.80;;;2.55;;
43509;SDS011;29105;57.764;40.952;2024-03-08T05:05:18;6.97;;;2.92;;
43509;SDS011;29105;57.764;40.952;2024-03-08T05:07:44;2.90;;;1.63;;
43509;SDS011;29105;57.764;40.952;2024-03-08T05:10:11;2.60;;;1.50;;
43509;SDS011;29105;57.764;40.952;2024-03-08T05:12:36;2.33;;;1.90;;
43509;SDS011;29105;57.764;40.952;2024-03-08T05:15:04;3.38;;;2.03;;
43509;SDS011;29105;57.764;40.952;2024-03-08T05:17:32;3.20;;;1.42;;
43509;SDS011;29105;57.764;40.952;2024-03-08T05:19:58;4.70;;;3.42;;
43509;SDS011;29105;57.764;40.952;2024-03-08T05:22:23;6.05;;;2.30;;
43509;SDS011;29105;57.764;40.952;2024-03-08T05:24:49;6.47;;;1.98;;
43509;SDS011;29105;57.764;40.952;2024-03-08T05:27:15;5.47;;;2.30;;
43509;SDS011;29105;57.764;40.952;2024-03-08T05:29:41;5.30;;;2.90;;
43509;SDS011;29105;57.764;40.952;2024-03-08T05:32:07;2.47;;;1.33;;
43509;SDS011;29105;57.764;40.952;2024-03-08T05:34:32;5.28;;;3.25;;
43509;SDS011;29105;57.764;40.952;2024-03-08T05:36:58;6.75;;;2.33;;
43509;SDS011;29105;57.764;40.952;2024-03-08T05:39:25;3.35;;;1.90;;
43509;SDS011;29105;57.764;40.952;2024-03-08T05:41:51;5.72;;;2.28;;
43509;SDS011;29105;57.764;40.952;2024-03-08T05:44:16;3.83;;;2.83;;
43509;SDS011;29105;57.764;40.952;2024-03-08T05:46:42;4.80;;;2.60;;
43509;SDS011;29105;57.764;40.952;2024-03-08T05:49:08;6.13;;;3.28;;
43509;SDS011;29105;57.764;40.952;2024-03-08T05:51:36;9.05;;;2.88;;
43509;SDS011;29105;57.764;40.952;2024-03-08T05:54:03;8.80;;;2.95;;
43509;SDS011;29105;57.764;40.952;2024-03-08T05:56:33;4.00;;;2.72;;
43509;SDS011;29105;57.764;40.952;2024-03-08T05:58:59;4.97;;;2.83;;
43509;SDS011;29105;57.764;40.952;2024-03-08T06:01:25;7.40;;;3.40;;
43509;SDS011;29105;57.764;40.952;2024-03-08T06:03:55;4.85;;;2.95;;
43509;SDS011;29105;57.764;40.952;2024-03-08T06:06:25;4.45;;;2.67;;
43509;SDS011;29105;57.764;40.952;2024-03-08T06:08:51;5.07;;;2.08;;
43509;SDS011;29105;57.764;40.952;2024-03-08T06:11:19;4.47;;;2.00;;
43509;SDS011;29105;57.764;40.952;2024-03-08T06:13:48;5.30;;;1.88;;
43509;SDS011;29105;57.764;40.952;2024-03-08T06:16:14;4.80;;;2.08;;
43509;SDS011;29105;57.764;40.952;2024-03-08T06:18:40;3.78;;;2.05;;
43509;SDS011;29105;57.764;40.952;2024-03-08T06:21:06;4.28;;;2.45;;
43509;SDS011;29105;57.764;40.952;2024-03-08T06:23:34;3.15;;;1.70;;
43509;SDS011;29105;57.764;40.952;2024-03-08T06:26:06;6.63;;;2.22;;
43509;SDS011;29105;57.764;40.952;2024-03-08T06:28:33;4.35;;;2.00;;
43509;SDS011;29105;57.764;40.952;2024-03-08T06:31:00;6.75;;;2.47;;
43509;SDS011;29105;57.764;40.952;2024-03-08T06:33:26;4.07;;;2.25;;
43509;SDS011;29105;57.764;40.952;2024-03-08T06:35:53;3.42;;;2.38;;
43509;SDS011;29105;57.764;40.952;2024-03-08T06:38:25;7.15;;;2.63;;
43509;SDS011;29105;57.764;40.952;2024-03-08T06:40:54;5.10;;;3.05;;
43509;SDS011;29105;57.764;40.952;2024-03-08T06:43:20;6.18;;;2.97;;
43509;SDS011;29105;57.764;40.952;2024-03-08T06:45:46;5.30;;;3.45;;
43509;SDS011;29105;57.764;40.952;2024-03-08T06:48:17;6.10;;;3.35;;
43509;SDS011;29105;57.764;40.952;2024-03-08T06:50:46;7.15;;;4.30;;
43509;SDS011;29105;57.764;40.952;2024-03-08T06:53:13;7.53;;;3.28;;
43509;SDS011;29105;57.764;40.952;2024-03-08T06:55:39;5.85;;;3.50;;
43509;SDS011;29105;57.764;40.952;2024-03-08T06:58:05;7.28;;;4.10;;
43509;SDS011;29105;57.764;40.952;2024-03-08T07:00:32;10.93;;;4.20;;
43509;SDS011;29105;57.764;40.952;2024-03-08T07:02:58;5.78;;;3.10;;
43509;SDS011;29105;57.764;40.952;2024-03-08T07:05:27;6.13;;;3.90;;
43509;SDS011;29105;57.764;40.952;2024-03-08T07:07:54;6.80;;;3.72;;
43509;SDS011;29105;57.764;40.952;2024-03-08T07:10:23;7.43;;;3.40;;
43509;SDS011;29105;57.764;40.952;2024-03-08T07:12:50;6.57;;;3.13;;
43509;SDS011;29105;57.764;40.952;2024-03-08T07:15:16;5.75;;;3.00;;
43509;SDS011;29105;57.764;40.952;2024-03-08T07:17:48;4.68;;;3.08;;
43509;SDS011;29105;57.764;40.952;2024-03-08T07:20:14;6.10;;;2.75;;
43509;SDS011;29105;57.764;40.952;2024-03-08T07:22:47;6.32;;;2.75;;
43509;SDS011;29105;57.764;40.952;2024-03-08T07:25:14;7.10;;;2.53;;
43509;SDS011;29105;57.764;40.952;2024-03-08T07:27:46;3.65;;;1.98;;
43509;SDS011;29105;57.764;40.952;2024-03-08T07:30:14;4.47;;;2.22;;
43509;SDS011;29105;57.764;40.952;2024-03-08T07:32:59;3.50;;;1.92;;
43509;SDS011;29105;57.764;40.952;2024-03-08T07:35:24;7.03;;;2.38;;
43509;SDS011;29105;57.764;40.952;2024-03-08T07:37:51;6.20;;;2.40;;
43509;SDS011;29105;57.764;40.952;2024-03-08T07:40:20;5.45;;;2.13;;
43509;SDS011;29105;57.764;40.952;2024-03-08T07:42:47;7.68;;;2.10;;
43509;SDS011;29105;57.764;40.952;2024-03-08T07:45:12;5.85;;;2.60;;
43509;SDS011;29105;57.764;40.952;2024-03-08T07:47:38;4.03;;;1.63;;
43509;SDS011;29105;57.764;40.952;2024-03-08T07:50:05;7.15;;;2.33;;
43509;SDS011;29105;57.764;40.952;2024-03-08T07:52:33;1.83;;;1.00;;
43509;SDS011;29105;57.764;40.952;2024-03-08T07:55:00;2.78;;;1.17;;
43509;SDS011;29105;57.764;40.952;2024-03-08T07:57:25;4.32;;;1.30;;
43509;SDS011;29105;57.764;40.952;2024-03-08T07:59:51;2.90;;;1.38;;
43509;SDS011;29105;57.764;40.952;2024-03-08T08:02:17;2.60;;;1.58;;
43509;SDS011;29105;57.764;40.952;2024-03-08T08:04:43;2.70;;;1.23;;
43509;SDS011;29105;57.764;40.952;2024-03-08T08:07:10;3.28;;;1.33;;
43509;SDS011;29105;57.764;40.952;2024-03-08T08:09:36;2.63;;;0.90;;
43509;SDS011;29105;57.764;40.952;2024-03-08T08:12:03;4.47;;;1.50;;
43509;SDS011;29105;57.764;40.952;2024-03-08T08:14:29;3.65;;;1.20;;
43509;SDS011;29105;57.764;40.952;2024-03-08T08:16:56;1.73;;;0.85;;
43509;SDS011;29105;57.764;40.952;2024-03-08T08:19:23;3.28;;;1.20;;
43509;SDS011;29105;57.764;40.952;2024-03-08T08:21:51;2.17;;;1.20;;
43509;SDS011;29105;57.764;40.952;2024-03-08T08:24:16;2.28;;;1.20;;
43509;SDS011;29105;57.764;40.952;2024-03-08T08:26:42;3.00;;;1.33;;
43509;SDS011;29105;57.764;40.952;2024-03-08T08:29:09;4.82;;;1.30;;
43509;SDS011;29105;57.764;40.952;2024-03-08T08:31:35;5.35;;;0.80;;
43509;SDS011;29105;57.764;40.952;2024-03-08T08:34:01;2.63;;;1.20;;
43509;SDS011;29105;57.764;40.952;2024-03-08T08:36:28;1.63;;;0.95;;
43509;SDS011;29105;57.764;40.952;2024-03-08T08:38:55;2.50;;;0.85;;
43509;SDS011;29105;57.764;40.952;2024-03-08T08:41:25;2.10;;;1.10;;
43509;SDS011;29105;57.764;40.952;2024-03-08T08:43:52;3.95;;;1.10;;
43509;SDS011;29105;57.764;40.952;2024-03-08T08:46:17;2.85;;;1.08;;
43509;SDS011;29105;57.764;40.952;2024-03-08T08:48:44;3.20;;;1.48;;
43509;SDS011;29105;57.764;40.952;2024-03-08T08:51:11;2.30;;;1.33;;
43509;SDS011;29105;57.764;40.952;2024-03-08T08:53:41;3.17;;;1.38;;
43509;SDS011;29105;57.764;40.952;2024-03-08T08:56:14;3.50;;;1.10;;
43509;SDS011;29105;57.764;40.952;2024-03-08T08:58:44;4.15;;;1.95;;
43509;SDS011;29105;57.764;40.952;2024-03-08T09:01:10;6.47;;;1.75;;
43509;SDS011;29105;57.764;40.952;2024-03-08T09:03:36;3.92;;;1.48;;
43509;SDS011;29105;57.764;40.952;2024-03-08T09:06:08;2.25;;;1.13;;
43509;SDS011;29105;57.764;40.952;2024-03-08T09:08:36;2.63;;;0.80;;
43509;SDS011;29105;57.764;40.952;2024-03-08T09:11:03;3.95;;;1.88;;
43509;SDS011;29105;57.764;40.952;2024-03-08T09:13:30;3.67;;;1.45;;
43509;SDS011;29105;57.764;40.952;2024-03-08T09:15:56;5.75;;;1.92;;
43509;SDS011;29105;57.764;40.952;2024-03-08T09:18:22;2.55;;;0.93;;
43509;SDS011;29105;57.764;40.952;2024-03-08T09:20:49;2.28;;;0.90;;
43509;SDS011;29105;57.764;40.952;2024-03-08T09:23:16;2.75;;;1.40;;
43509;SDS011;29105;57.764;40.952;2024-03-08T09:25:45;1.48;;;0.70;;
43509;SDS011;29105;57.764;40.952;2024-03-08T09:28:11;2.45;;;1.83;;
43509;SDS011;29105;57.764;40.952;2024-03-08T09:30:38;1.55;;;0.93;;
43509;SDS011;29105;57.764;40.952;2024-03-08T09:33:04;1.25;;;0.57;;
43509;SDS011;29105;57.764;40.952;2024-03-08T09:35:31;2.42;;;1.02;;
43509;SDS011;29105;57.764;40.952;2024-03-08T09:37:57;3.83;;;0.65;;
43509;SDS011;29105;57.764;40.952;2024-03-08T09:40:23;2.33;;;0.85;;
43509;SDS011;29105;57.764;40.952;2024-03-08T09:42:51;3.60;;;0.90;;
43509;SDS011;29105;57.764;40.952;2024-03-08T09:45:19;2.60;;;0.98;;
43509;SDS011;29105;57.764;40.952;2024-03-08T09:47:47;3.92;;;0.70;;
43509;SDS011;29105;57.764;40.952;2024-03-08T09:50:14;3.05;;;1.05;;
43509;SDS011;29105;57.764;40.952;2024-03-08T09:52:41;2.88;;;1.10;;
43509;SDS011;29105;57.764;40.952;2024-03-08T09:55:11;3.40;;;0.80;;
43509;SDS011;29105;57.764;40.952;2024-03-08T09:57:38;3.08;;;0.82;;
43509;SDS011;29105;57.764;40.952;2024-03-08T10:00:05;3.45;;;1.77;;
43509;SDS011;29105;57.764;40.952;2024-03-08T10:02:46;2.08;;;1.17;;
43509;SDS011;29105;57.764;40.952;2024-03-08T10:05:13;1.85;;;0.70;;
43509;SDS011;29105;57.764;40.952;2024-03-08T10:07:39;1.25;;;0.40;;
43509;SDS011;29105;57.764;40.952;2024-03-08T10:10:05;1.55;;;0.70;;
43509;SDS011;29105;57.764;40.952;2024-03-08T10:12:34;3.83;;;0.60;;
43509;SDS011;29105;57.764;40.952;2024-03-08T10:15:00;1.30;;;0.70;;
43509;SDS011;29105;57.764;40.952;2024-03-08T10:17:27;1.13;;;0.68;;
43509;SDS011;29105;57.764;40.952;2024-03-08T10:19:57;1.05;;;0.47;;
43509;SDS011;29105;57.764;40.952;2024-03-08T10:22:25;1.48;;;0.52;;
43509;SDS011;29105;57.764;40.952;2024-03-08T10:24:51;0.82;;;0.22;;
43509;SDS011;29105;57.764;40.952;2024-03-08T10:27:17;0.90;;;0.40;;
43509;SDS011;29105;57.764;40.952;2024-03-08T10:29:45;4.28;;;0.57;;
43509;SDS011;29105;57.764;40.952;2024-03-08T10:32:13;0.65;;;0.20;;
43509;SDS011;29105;57.764;40.952;2024-03-08T10:34:38;1.05;;;0.20;;
43509;SDS011;29105;57.764;40.952;2024-03-08T10:37:04;0.88;;;0.20;;
43509;SDS011;29105;57.764;40.952;2024-03-08T10:39:34;0.90;;;0.30;;
43509;SDS011;29105;57.764;40.952;2024-03-08T10:42:04;1.80;;;0.43;;
43509;SDS011;29105;57.764;40.952;2024-03-08T10:49:49;0.90;;;0.35;;
43509;SDS011;29105;57.764;40.952;2024-03-08T10:52:17;1.75;;;0.60;;
43509;SDS011;29105;57.764;40.952;2024-03-08T10:54:44;1.77;;;0.52;;
43509;SDS011;29105;57.764;40.952;2024-03-08T10:57:10;3.50;;;0.70;;
43509;SDS011;29105;57.764;40.952;2024-03-08T10:59:38;3.00;;;0.77;;
43509;SDS011;29105;57.764;40.952;2024-03-08T11:02:04;2.00;;;0.55;;
43509;SDS011;29105;57.764;40.952;2024-03-08T11:04:31;0.90;;;0.30;;
43509;SDS011;29105;57.764;40.952;2024-03-08T11:07:01;1.50;;;0.35;;
43509;SDS011;29105;57.764;40.952;2024-03-08T11:09:33;1.30;;;0.50;;
43509;SDS011;29105;57.764;40.952;2024-03-08T11:15:02;1.13;;;0.63;;
43509;SDS011;29105;57.764;40.952;2024-03-08T11:20:04;1.50;;;0.52;;
43509;SDS011;29105;57.764;40.952;2024-03-08T11:22:40;2.78;;;1.00;;
43509;SDS011;29105;57.764;40.952;2024-03-08T11:25:16;1.50;;;0.82;;
43509;SDS011;29105;57.764;40.952;2024-03-08T11:28:22;1.50;;;0.50;;
43509;SDS011;29105;57.764;40.952;2024-03-08T11:31:23;1.13;;;0.47;;
43509;SDS011;29105;57.764;40.952;2024-03-08T11:33:48;1.52;;;0.90;;
43509;SDS011;29105;57.764;40.952;2024-03-08T11:36:22;1.75;;;1.17;;
43509;SDS011;29105;57.764;40.952;2024-03-08T11:38:50;1.50;;;1.00;;
43509;SDS011;29105;57.764;40.952;2024-03-08T11:41:21;1.58;;;0.60;;
43509;SDS011;29105;57.764;40.952;2024-03-08T11:43:49;1.77;;;0.80;;
43509;SDS011;29105;57.764;40.952;2024-03-08T11:46:16;3.25;;;0.75;;
43509;SDS011;29105;57.764;40.952;2024-03-08T11:48:43;1.88;;;0.88;;
43509;SDS011;29105;57.764;40.952;2024-03-08T11:51:12;1.80;;;1.15;;
43509;SDS011;29105;57.764;40.952;2024-03-08T11:53:39;2.08;;;1.40;;
43509;SDS011;29105;57.764;40.952;2024-03-08T11:56:09;2.85;;;1.90;;
43509;SDS011;29105;57.764;40.952;2024-03-08T11:58:36;2.17;;;0.98;;
43509;SDS011;29105;57.764;40.952;2024-03-08T12:01:06;1.20;;;1.00;;
43509;SDS011;29105;57.764;40.952;2024-03-08T12:03:37;0.80;;;0.40;;
43509;SDS011;29105;57.764;40.952;2024-03-08T12:06:04;1.13;;;0.40;;
43509;SDS011;29105;57.764;40.952;2024-03-08T12:08:30;1.48;;;0.43;;
43509;SDS011;29105;57.764;40.952;2024-03-08T12:10:57;1.45;;;0.98;;
43509;SDS011;29105;57.764;40.952;2024-03-08T12:15:57;1.77;;;0.30;;
43509;SDS011;29105;57.764;40.952;2024-03-08T12:18:25;1.17;;;0.43;;
43509;SDS011;29105;57.764;40.952;2024-03-08T12:20:51;1.60;;;0.88;;
43509;SDS011;29105;57.764;40.952;2024-03-08T12:23:17;2.78;;;0.40;;
43509;SDS011;29105;57.764;40.952;2024-03-08T12:25:43;0.68;;;0.20;;
43509;SDS011;29105;57.764;40.952;2024-03-08T12:28:10;0.85;;;0.30;;
43509;SDS011;29105;57.764;40.952;2024-03-08T12:30:50;0.63;;;0.35;;
43509;SDS011;29105;57.764;40.952;2024-03-08T12:33:22;0.88;;;0.35;;
43509;SDS011;29105;57.764;40.952;2024-03-08T12:35:51;0.85;;;0.40;;
43509;SDS011;29105;57.764;40.952;2024-03-08T12:38:23;2.33;;;0.70;;
43509;SDS011;29105;57.764;40.952;2024-03-08T12:40:51;0.80;;;0.50;;
43509;SDS011;29105;57.764;40.952;2024-03-08T12:43:20;2.53;;;0.35;;
43509;SDS011;29105;57.764;40.952;2024-03-08T12:45:46;0.80;;;0.50;;
43509;SDS011;29105;57.764;40.952;2024-03-08T12:48:12;2.60;;;0.77;;
43509;SDS011;29105;57.764;40.952;2024-03-08T12:50:42;1.55;;;0.50;;
43509;SDS011;29105;57.764;40.952;2024-03-08T12:53:10;1.33;;;0.32;;
43509;SDS011;29105;57.764;40.952;2024-03-08T12:55:36;1.00;;;0.50;;
43509;SDS011;29105;57.764;40.952;2024-03-08T12:58:03;2.38;;;0.40;;
43509;SDS011;29105;57.764;40.952;2024-03-08T13:00:33;0.47;;;0.20;;
43509;SDS011;29105;57.764;40.952;2024-03-08T13:03:02;1.33;;;0.30;;
43509;SDS011;29105;57.764;40.952;2024-03-08T13:05:28;0.65;;;0.30;;
43509;SDS011;29105;57.764;40.952;2024-03-08T13:07:55;3.03;;;0.40;;
43509;SDS011;29105;57.764;40.952;2024-03-08T13:10:22;0.98;;;0.30;;
43509;SDS011;29105;57.764;40.952;2024-03-08T13:12:48;3.70;;;0.50;;
43509;SDS011;29105;57.764;40.952;2024-03-08T13:15:13;1.30;;;0.30;;
43509;SDS011;29105;57.764;40.952;2024-03-08T13:17:47;1.55;;;0.30;;
43509;SDS011;29105;57.764;40.952;2024-03-08T13:20:13;0.60;;;0.20;;
43509;SDS011;29105;57.764;40.952;2024-03-08T13:22:45;0.88;;;0.40;;
43509;SDS011;29105;57.764;40.952;2024-03-08T13:25:11;1.27;;;0.73;;
43509;SDS011;29105;57.764;40.952;2024-03-08T13:27:42;2.35;;;0.40;;
43509;SDS011;29105;57.764;40.952;2024-03-08T13:30:11;1.23;;;0.40;;
43509;SDS011;29105;57.764;40.952;2024-03-08T13:32:40;1.65;;;0.45;;
43509;SDS011;29105;57.764;40.952;2024-03-08T13:35:08;3.85;;;0.73;;
43509;SDS011;29105;57.764;40.952;2024-03-08T13:37:39;1.70;;;0.50;;
43509;SDS011;29105;57.764;40.952;2024-03-08T13:40:08;3.05;;;0.65;;
43509;SDS011;29105;57.764;40.952;2024-03-08T13:42:40;1.85;;;0.60;;
43509;SDS011;29105;57.764;40.952;2024-03-08T13:45:10;1.48;;;0.40;;
43509;SDS011;29105;57.764;40.952;2024-03-08T13:47:40;3.35;;;0.60;;
43509;SDS011;29105;57.764;40.952;2024-03-08T13:50:07;1.00;;;0.47;;
43509;SDS011;29105;57.764;40.952;2024-03-08T13:52:37;1.73;;;0.70;;
43509;SDS011;29105;57.764;40.952;2024-03-08T13:55:04;2.53;;;0.40;;
43509;SDS011;29105;57.764;40.952;2024-03-08T13:57:31;20.08;;;1.20;;
43509;SDS011;29105;57.764;40.952;2024-03-08T13:59:57;1.88;;;0.50;;
43509;SDS011;29105;57.764;40.952;2024-03-08T14:02:23;1.05;;;0.35;;
43509;SDS011;29105;57.764;40.952;2024-03-08T14:04:53;2.60;;;1.10;;
43509;SDS011;29105;57.764;40.952;2024-03-08T14:07:22;1.35;;;0.50;;
43509;SDS011;29105;57.764;40.952;2024-03-08T14:09:51;1.45;;;0.43;;
43509;SDS011;29105;57.764;40.952;2024-03-08T14:12:18;1.48;;;0.25;;
43509;SDS011;29105;57.764;40.952;2024-03-08T14:14:45;1.10;;;0.40;;
43509;SDS011;29105;57.764;40.952;2024-03-08T14:17:10;2.08;;;0.32;;
43509;SDS011;29105;57.764;40.952;2024-03-08T14:19:41;0.45;;;0.30;;
43509;SDS011;29105;57.764;40.952;2024-03-08T14:22:06;1.05;;;0.30;;
43509;SDS011;29105;57.764;40.952;2024-03-08T14:24:32;1.05;;;0.40;;
43509;SDS011;29105;57.764;40.952;2024-03-08T14:27:01;0.85;;;0.30;;
43509;SDS011;29105;57.764;40.952;2024-03-08T14:29:28;1.42;;;0.60;;
43509;SDS011;29105;57.764;40.952;2024-03-08T14:31:58;2.28;;;0.40;;
43509;SDS011;29105;57.764;40.952;2024-03-08T14:34:26;2.38;;;0.95;;
43509;SDS011;29105;57.764;40.952;2024-03-08T14:36:54;3.15;;;0.88;;
43509;SDS011;29105;57.764;40.952;2024-03-08T14:39:20;1.27;;;0.75;;
43509;SDS011;29105;57.764;40.952;2024-03-08T14:41:47;2.05;;;0.90;;
43509;SDS011;29105;57.764;40.952;2024-03-08T14:44:13;3.55;;;1.13;;
43509;SDS011;29105;57.764;40.952;2024-03-08T14:46:40;3.92;;;1.92;;
43509;SDS011;29105;57.764;40.952;2024-03-08T14:49:16;3.17;;;0.80;;